sensor_id;sensor_type;location;lat;lon;timestamp;temperature;humidity
77519;DHT22;66629;47.346;19.038;2023-02-01T00:01:30;3.26;83.09
77519;DHT22;66629;47.346;19.038;2023-02-01T00:03:55;3.35;82.72
77519;DHT22;66629;47.346;19.038;2023-02-01T00:06:20;3.46;81.64
77519;DHT22;66629;47.346;19.038;2023-02-01T00:08:46;3.47;81.48
77519;DHT22;66629;47.346;19.038;2023-02-01T00:11:12;3.49;81.62
77519;DHT22;66629;47.346;19.038;2023-02-01T00:13:40;3.47;82.02
77519;DHT22;66629;47.346;19.038;2023-02-01T00:16:11;3.52;81.34
77519;DHT22;66629;47.346;19.038;2023-02-01T00:18:37;3.53;81.66
77519;DHT22;66629;47.346;19.038;2023-02-01T00:21:03;3.49;81.59
77519;DHT22;66629;47.346;19.038;2023-02-01T00:23:32;3.52;81.09
77519;DHT22;66629;47.346;19.038;2023-02-01T00:26:00;3.54;80.68
77519;DHT22;66629;47.346;19.038;2023-02-01T00:28:26;3.60;80.64
77519;DHT22;66629;47.346;19.038;2023-02-01T00:31:00;3.59;80.21
77519;DHT22;66629;47.346;19.038;2023-02-01T00:33:25;3.62;80.48
77519;DHT22;66629;47.346;19.038;2023-02-01T00:35:51;3.63;80.34
77519;DHT22;66629;47.346;19.038;2023-02-01T00:38:16;3.64;80.34
77519;DHT22;66629;47.346;19.038;2023-02-01T00:40:42;3.67;80.23
77519;DHT22;66629;47.346;19.038;2023-02-01T00:43:07;3.67;80.34
77519;DHT22;66629;47.346;19.038;2023-02-01T00:45:32;3.70;79.69
77519;DHT22;66629;47.346;19.038;2023-02-01T00:47:58;3.71;80.04
77519;DHT22;66629;47.346;19.038;2023-02-01T00:50:23;3.66;80.40
77519;DHT22;66629;47.346;19.038;2023-02-01T00:52:49;3.69;79.76
77519;DHT22;66629;47.346;19.038;2023-02-01T00:55:14;3.69;79.61
77519;DHT22;66629;47.346;19.038;2023-02-01T00:57:40;3.70;79.94
77519;DHT22;66629;47.346;19.038;2023-02-01T01:00:06;3.70;79.56
77519;DHT22;66629;47.346;19.038;2023-02-01T01:02:31;3.69;79.86
77519;DHT22;66629;47.346;19.038;2023-02-01T01:04:57;3.67;80.19
77519;DHT22;66629;47.346;19.038;2023-02-01T01:07:22;3.67;80.38
77519;DHT22;66629;47.346;19.038;2023-02-01T01:09:47;3.66;80.43
77519;DHT22;66629;47.346;19.038;2023-02-01T01:12:13;3.66;80.11
77519;DHT22;66629;47.346;19.038;2023-02-01T01:14:38;3.69;79.51
77519;DHT22;66629;47.346;19.038;2023-02-01T01:17:03;3.69;79.49
77519;DHT22;66629;47.346;19.038;2023-02-01T01:19:29;3.66;79.70
77519;DHT22;66629;47.346;19.038;2023-02-01T01:21:54;3.60;79.64
77519;DHT22;66629;47.346;19.038;2023-02-01T01:24:20;3.57;79.49
77519;DHT22;66629;47.346;19.038;2023-02-01T01:26:45;3.52;79.84
77519;DHT22;66629;47.346;19.038;2023-02-01T01:29:11;3.44;80.12
77519;DHT22;66629;47.346;19.038;2023-02-01T01:31:36;3.38;80.11
77519;DHT22;66629;47.346;19.038;2023-02-01T01:34:02;3.26;80.32
77519;DHT22;66629;47.346;19.038;2023-02-01T01:36:28;3.16;80.13
77519;DHT22;66629;47.346;19.038;2023-02-01T01:38:54;3.12;80.21
77519;DHT22;66629;47.346;19.038;2023-02-01T01:41:22;3.08;80.08
77519;DHT22;66629;47.346;19.038;2023-02-01T01:43:58;3.09;80.19
77519;DHT22;66629;47.346;19.038;2023-02-01T01:46:27;3.09;79.87
77519;DHT22;66629;47.346;19.038;2023-02-01T01:51:29;3.16;79.38
77519;DHT22;66629;47.346;19.038;2023-02-01T01:54:02;3.16;79.26
77519;DHT22;66629;47.346;19.038;2023-02-01T01:56:29;3.12;79.34
77519;DHT22;66629;47.346;19.038;2023-02-01T01:58:56;3.15;79.14
77519;DHT22;66629;47.346;19.038;2023-02-01T02:01:21;3.23;78.54
77519;DHT22;66629;47.346;19.038;2023-02-01T02:03:47;3.19;79.02
77519;DHT22;66629;47.346;19.038;2023-02-01T02:06:40;3.09;79.26
77519;DHT22;66629;47.346;19.038;2023-02-01T02:09:09;3.01;79.36
77519;DHT22;66629;47.346;19.038;2023-02-01T02:11:34;2.93;79.75
77519;DHT22;66629;47.346;19.038;2023-02-01T02:14:00;2.84;80.02
77519;DHT22;66629;47.346;19.038;2023-02-01T02:16:40;2.79;80.27
77519;DHT22;66629;47.346;19.038;2023-02-01T02:41:53;2.34;81.25
77519;DHT22;66629;47.346;19.038;2023-02-01T02:47:50;2.21;81.75
77519;DHT22;66629;47.346;19.038;2023-02-01T02:50:23;2.17;81.92
77519;DHT22;66629;47.346;19.038;2023-02-01T02:53:17;2.22;81.97
77519;DHT22;66629;47.346;19.038;2023-02-01T02:56:05;2.52;81.39
77519;DHT22;66629;47.346;19.038;2023-02-01T02:58:50;2.69;80.83
77519;DHT22;66629;47.346;19.038;2023-02-01T03:01:35;2.86;80.19
77519;DHT22;66629;47.346;19.038;2023-02-01T03:04:20;2.95;79.83
77519;DHT22;66629;47.346;19.038;2023-02-01T03:06:46;2.98;79.58
77519;DHT22;66629;47.346;19.038;2023-02-01T03:09:29;2.97;79.82
77519;DHT22;66629;47.346;19.038;2023-02-01T03:12:00;2.95;80.02
77519;DHT22;66629;47.346;19.038;2023-02-01T03:14:50;2.94;80.07
77519;DHT22;66629;47.346;19.038;2023-02-01T03:17:22;2.87;80.05
77519;DHT22;66629;47.346;19.038;2023-02-01T03:19:52;2.87;80.44
77519;DHT22;66629;47.346;19.038;2023-02-01T03:22:23;2.84;80.49
77519;DHT22;66629;47.346;19.038;2023-02-01T03:25:01;2.80;80.70
77519;DHT22;66629;47.346;19.038;2023-02-01T03:27:33;2.72;80.86
77519;DHT22;66629;47.346;19.038;2023-02-01T03:30:21;2.69;80.99
77519;DHT22;66629;47.346;19.038;2023-02-01T03:32:50;2.70;81.21
77519;DHT22;66629;47.346;19.038;2023-02-01T03:41:20;2.63;81.60
77519;DHT22;66629;47.346;19.038;2023-02-01T03:44:02;2.60;81.83
77519;DHT22;66629;47.346;19.038;2023-02-01T03:46:33;2.53;82.07
77519;DHT22;66629;47.346;19.038;2023-02-01T03:49:06;2.52;82.13
77519;DHT22;66629;47.346;19.038;2023-02-01T03:51:33;2.52;82.24
77519;DHT22;66629;47.346;19.038;2023-02-01T03:54:02;2.53;82.36
77519;DHT22;66629;47.346;19.038;2023-02-01T03:56:29;2.62;82.00
77519;DHT22;66629;47.346;19.038;2023-02-01T03:58:55;2.59;81.95
77519;DHT22;66629;47.346;19.038;2023-02-01T04:01:29;2.56;82.15
77519;DHT22;66629;47.346;19.038;2023-02-01T04:03:55;2.66;81.92
77519;DHT22;66629;47.346;19.038;2023-02-01T04:06:21;2.64;81.93
77519;DHT22;66629;47.346;19.038;2023-02-01T04:08:46;2.72;81.76
77519;DHT22;66629;47.346;19.038;2023-02-01T04:11:12;2.76;81.64
77519;DHT22;66629;47.346;19.038;2023-02-01T04:13:37;2.69;81.87
77519;DHT22;66629;47.346;19.038;2023-02-01T04:16:03;2.72;81.82
77519;DHT22;66629;47.346;19.038;2023-02-01T04:18:28;2.66;81.87
77519;DHT22;66629;47.346;19.038;2023-02-01T04:20:54;2.72;81.64
77519;DHT22;66629;47.346;19.038;2023-02-01T04:23:19;2.64;81.88
77519;DHT22;66629;47.346;19.038;2023-02-01T04:25:45;2.62;81.98
77519;DHT22;66629;47.346;19.038;2023-02-01T04:28:11;2.62;82.06
77519;DHT22;66629;47.346;19.038;2023-02-01T04:30:36;2.55;82.19
77519;DHT22;66629;47.346;19.038;2023-02-01T04:33:02;2.52;82.37
77519;DHT22;66629;47.346;19.038;2023-02-01T04:35:30;2.56;82.32
77519;DHT22;66629;47.346;19.038;2023-02-01T04:37:56;2.50;82.26
77519;DHT22;66629;47.346;19.038;2023-02-01T04:40:21;2.53;82.53
77519;DHT22;66629;47.346;19.038;2023-02-01T04:42:47;2.55;82.37
77519;DHT22;66629;47.346;19.038;2023-02-01T04:45:12;2.57;82.24
77519;DHT22;66629;47.346;19.038;2023-02-01T04:47:38;2.67;81.98
77519;DHT22;66629;47.346;19.038;2023-02-01T04:50:04;2.79;81.56
77519;DHT22;66629;47.346;19.038;2023-02-01T04:52:31;2.69;81.92
77519;DHT22;66629;47.346;19.038;2023-02-01T04:54:56;2.64;81.90
77519;DHT22;66629;47.346;19.038;2023-02-01T04:57:25;2.57;82.10
77519;DHT22;66629;47.346;19.038;2023-02-01T04:59:50;2.52;82.35
77519;DHT22;66629;47.346;19.038;2023-02-01T05:02:16;2.49;82.48
77519;DHT22;66629;47.346;19.038;2023-02-01T05:04:41;2.52;82.61
77519;DHT22;66629;47.346;19.038;2023-02-01T05:07:07;2.48;82.56
77519;DHT22;66629;47.346;19.038;2023-02-01T05:09:32;2.41;82.69
77519;DHT22;66629;47.346;19.038;2023-02-01T05:11:57;2.38;82.80
77519;DHT22;66629;47.346;19.038;2023-02-01T05:14:41;2.42;82.73
77519;DHT22;66629;47.346;19.038;2023-02-01T05:17:07;2.36;82.83
77519;DHT22;66629;47.346;19.038;2023-02-01T05:19:32;2.27;83.23
77519;DHT22;66629;47.346;19.038;2023-02-01T05:21:58;2.24;83.46
77519;DHT22;66629;47.346;19.038;2023-02-01T05:24:23;2.24;83.65
77519;DHT22;66629;47.346;19.038;2023-02-01T05:26:49;2.31;83.39
77519;DHT22;66629;47.346;19.038;2023-02-01T05:29:15;2.29;83.36
77519;DHT22;66629;47.346;19.038;2023-02-01T05:31:41;2.38;83.04
77519;DHT22;66629;47.346;19.038;2023-02-01T05:34:09;2.42;82.95
77519;DHT22;66629;47.346;19.038;2023-02-01T05:36:34;2.35;83.00
77519;DHT22;66629;47.346;19.038;2023-02-01T05:39:00;2.29;83.08
77519;DHT22;66629;47.346;19.038;2023-02-01T05:41:25;2.17;83.18
77519;DHT22;66629;47.346;19.038;2023-02-01T05:43:50;2.13;83.52
77519;DHT22;66629;47.346;19.038;2023-02-01T05:46:16;2.22;83.46
77519;DHT22;66629;47.346;19.038;2023-02-01T05:48:42;2.17;83.64
77519;DHT22;66629;47.346;19.038;2023-02-01T05:51:08;2.24;83.67
77519;DHT22;66629;47.346;19.038;2023-02-01T05:53:34;2.20;83.59
77519;DHT22;66629;47.346;19.038;2023-02-01T05:56:00;2.22;83.64
77519;DHT22;66629;47.346;19.038;2023-02-01T05:58:25;2.27;83.63
77519;DHT22;66629;47.346;19.038;2023-02-01T06:00:51;2.29;83.51
77519;DHT22;66629;47.346;19.038;2023-02-01T06:03:16;2.38;83.33
77519;DHT22;66629;47.346;19.038;2023-02-01T06:05:45;2.45;83.09
77519;DHT22;66629;47.346;19.038;2023-02-01T06:08:12;2.52;82.94
77519;DHT22;66629;47.346;19.038;2023-02-01T06:10:37;2.59;82.66
77519;DHT22;66629;47.346;19.038;2023-02-01T06:13:02;2.57;82.47
77519;DHT22;66629;47.346;19.038;2023-02-01T06:15:29;2.55;82.66
77519;DHT22;66629;47.346;19.038;2023-02-01T06:17:55;2.49;82.56
77519;DHT22;66629;47.346;19.038;2023-02-01T06:20:21;2.50;82.94
77519;DHT22;66629;47.346;19.038;2023-02-01T06:22:46;2.56;82.23
77519;DHT22;66629;47.346;19.038;2023-02-01T06:25:12;2.45;82.69
77519;DHT22;66629;47.346;19.038;2023-02-01T06:27:38;2.44;82.67
77519;DHT22;66629;47.346;19.038;2023-02-01T06:30:04;2.34;82.86
77519;DHT22;66629;47.346;19.038;2023-02-01T06:32:30;2.27;83.10
77519;DHT22;66629;47.346;19.038;2023-02-01T06:34:55;2.48;83.23
77519;DHT22;66629;47.346;19.038;2023-02-01T06:37:22;2.48;82.81
77519;DHT22;66629;47.346;19.038;2023-02-01T06:39:50;2.80;81.79
77519;DHT22;66629;47.346;19.038;2023-02-01T06:42:15;2.87;81.41
77519;DHT22;66629;47.346;19.038;2023-02-01T06:44:41;2.94;81.30
77519;DHT22;66629;47.346;19.038;2023-02-01T06:47:06;3.15;82.10
77519;DHT22;66629;47.346;19.038;2023-02-01T06:49:31;3.36;80.07
77519;DHT22;66629;47.346;19.038;2023-02-01T06:51:57;3.49;79.25
77519;DHT22;66629;47.346;19.038;2023-02-01T06:54:25;3.66;78.96
77519;DHT22;66629;47.346;19.038;2023-02-01T06:56:51;3.74;78.23
77519;DHT22;66629;47.346;19.038;2023-02-01T06:59:16;4.09;77.23
77519;DHT22;66629;47.346;19.038;2023-02-01T07:01:42;4.23;76.71
77519;DHT22;66629;47.346;19.038;2023-02-01T07:04:10;4.23;76.52
77519;DHT22;66629;47.346;19.038;2023-02-01T07:06:36;4.47;75.89
77519;DHT22;66629;47.346;19.038;2023-02-01T07:09:02;4.64;75.43
77519;DHT22;66629;47.346;19.038;2023-02-01T07:11:27;4.60;75.52
77519;DHT22;66629;47.346;19.038;2023-02-01T07:13:53;4.61;74.96
77519;DHT22;66629;47.346;19.038;2023-02-01T07:16:19;4.74;75.15
77519;DHT22;66629;47.346;19.038;2023-02-01T07:18:45;4.71;74.86
77519;DHT22;66629;47.346;19.038;2023-02-01T07:21:11;4.71;75.38
77519;DHT22;66629;47.346;19.038;2023-02-01T07:23:37;4.56;75.53
77519;DHT22;66629;47.346;19.038;2023-02-01T07:26:04;4.36;76.14
77519;DHT22;66629;47.346;19.038;2023-02-01T07:28:32;4.26;76.84
77519;DHT22;66629;47.346;19.038;2023-02-01T07:33:29;4.16;77.69
77519;DHT22;66629;47.346;19.038;2023-02-01T07:35:54;4.13;78.21
77519;DHT22;66629;47.346;19.038;2023-02-01T07:38:19;4.16;77.75
77519;DHT22;66629;47.346;19.038;2023-02-01T07:40:47;4.19;77.92
77519;DHT22;66629;47.346;19.038;2023-02-01T07:43:12;4.29;77.34
77519;DHT22;66629;47.346;19.038;2023-02-01T07:45:38;4.39;77.34
77519;DHT22;66629;47.346;19.038;2023-02-01T07:48:03;4.51;76.71
77519;DHT22;66629;47.346;19.038;2023-02-01T07:50:29;4.54;76.24
77519;DHT22;66629;47.346;19.038;2023-02-01T07:52:55;4.60;76.03
77519;DHT22;66629;47.346;19.038;2023-02-01T07:55:21;4.68;75.67
77519;DHT22;66629;47.346;19.038;2023-02-01T07:57:46;4.75;75.83
77519;DHT22;66629;47.346;19.038;2023-02-01T08:00:12;4.86;75.06
77519;DHT22;66629;47.346;19.038;2023-02-01T08:03:00;4.99;76.00
77519;DHT22;66629;47.346;19.038;2023-02-01T08:05:26;5.12;74.44
77519;DHT22;66629;47.346;19.038;2023-02-01T08:07:51;5.26;74.13
77519;DHT22;66629;47.346;19.038;2023-02-01T08:10:18;5.42;74.31
77519;DHT22;66629;47.346;19.038;2023-02-01T08:12:44;5.59;73.18
77519;DHT22;66629;47.346;19.038;2023-02-01T08:15:17;5.87;72.47
77519;DHT22;66629;47.346;19.038;2023-02-01T08:17:49;6.10;71.99
77519;DHT22;66629;47.346;19.038;2023-02-01T08:20:16;6.27;71.15
77519;DHT22;66629;47.346;19.038;2023-02-01T08:22:42;6.50;69.97
77519;DHT22;66629;47.346;19.038;2023-02-01T08:25:08;6.76;69.25
77519;DHT22;66629;47.346;19.038;2023-02-01T08:27:34;6.88;69.69
77519;DHT22;66629;47.346;19.038;2023-02-01T08:29:59;6.95;67.91
77519;DHT22;66629;47.346;19.038;2023-02-01T08:32:25;7.23;68.68
77519;DHT22;66629;47.346;19.038;2023-02-01T08:34:51;7.29;68.07
77519;DHT22;66629;47.346;19.038;2023-02-01T08:37:16;7.15;67.14
77519;DHT22;66629;47.346;19.038;2023-02-01T08:39:42;7.08;67.02
77519;DHT22;66629;47.346;19.038;2023-02-01T08:42:11;7.23;66.75
77519;DHT22;66629;47.346;19.038;2023-02-01T08:44:55;7.37;65.94
77519;DHT22;66629;47.346;19.038;2023-02-01T08:47:21;7.26;66.10
77519;DHT22;66629;47.346;19.038;2023-02-01T08:49:47;7.59;65.96
77519;DHT22;66629;47.346;19.038;2023-02-01T08:52:12;7.67;65.30
77519;DHT22;66629;47.346;19.038;2023-02-01T08:54:37;7.82;65.37
77519;DHT22;66629;47.346;19.038;2023-02-01T08:57:05;7.89;64.76
77519;DHT22;66629;47.346;19.038;2023-02-01T08:59:30;8.10;64.99
77519;DHT22;66629;47.346;19.038;2023-02-01T09:01:56;8.07;64.12
77519;DHT22;66629;47.346;19.038;2023-02-01T09:04:21;8.13;64.02
77519;DHT22;66629;47.346;19.038;2023-02-01T09:06:46;7.84;64.35
77519;DHT22;66629;47.346;19.038;2023-02-01T09:09:12;7.95;63.00
77519;DHT22;66629;47.346;19.038;2023-02-01T09:11:37;8.03;63.54
77519;DHT22;66629;47.346;19.038;2023-02-01T09:14:03;7.81;63.69
77519;DHT22;66629;47.346;19.038;2023-02-01T09:16:28;7.85;63.95
77519;DHT22;66629;47.346;19.038;2023-02-01T09:18:54;7.81;63.62
77519;DHT22;66629;47.346;19.038;2023-02-01T09:21:20;7.91;64.96
77519;DHT22;66629;47.346;19.038;2023-02-01T09:23:45;7.61;64.01
77519;DHT22;66629;47.346;19.038;2023-02-01T09:26:13;7.28;64.69
77519;DHT22;66629;47.346;19.038;2023-02-01T09:28:39;7.28;65.13
77519;DHT22;66629;47.346;19.038;2023-02-01T09:31:04;7.36;65.70
77519;DHT22;66629;47.346;19.038;2023-02-01T09:33:30;7.35;65.55
77519;DHT22;66629;47.346;19.038;2023-02-01T09:36:04;7.30;65.62
77519;DHT22;66629;47.346;19.038;2023-02-01T09:38:30;7.23;66.79
77519;DHT22;66629;47.346;19.038;2023-02-01T09:40:57;7.23;67.51
77519;DHT22;66629;47.346;19.038;2023-02-01T09:48:42;7.73;66.52
77519;DHT22;66629;47.346;19.038;2023-02-01T09:51:25;7.73;66.37
77519;DHT22;66629;47.346;19.038;2023-02-01T09:54:02;7.52;67.07
77519;DHT22;66629;47.346;19.038;2023-02-01T09:56:36;7.37;67.66
77519;DHT22;66629;47.346;19.038;2023-02-01T09:59:43;7.08;69.60
77519;DHT22;66629;47.346;19.038;2023-02-01T10:02:18;6.93;70.96
77519;DHT22;66629;47.346;19.038;2023-02-01T10:04:44;6.87;72.53
77519;DHT22;66629;47.346;19.038;2023-02-01T10:10:10;6.97;71.19
77519;DHT22;66629;47.346;19.038;2023-02-01T10:15:48;7.78;69.63
77519;DHT22;66629;47.346;19.038;2023-02-01T10:26:42;8.57;66.42
77519;DHT22;66629;47.346;19.038;2023-02-01T10:29:36;8.44;67.03
77519;DHT22;66629;47.346;19.038;2023-02-01T10:32:03;8.13;66.36
77519;DHT22;66629;47.346;19.038;2023-02-01T10:34:36;7.94;67.78
77519;DHT22;66629;47.346;19.038;2023-02-01T10:37:13;7.87;67.99
77519;DHT22;66629;47.346;19.038;2023-02-01T10:39:48;7.89;68.28
77519;DHT22;66629;47.346;19.038;2023-02-01T10:42:16;8.05;67.74
77519;DHT22;66629;47.346;19.038;2023-02-01T10:44:44;8.38;66.92
77519;DHT22;66629;47.346;19.038;2023-02-01T10:47:13;8.61;66.06
77519;DHT22;66629;47.346;19.038;2023-02-01T10:49:47;8.30;66.44
77519;DHT22;66629;47.346;19.038;2023-02-01T10:52:23;8.19;67.06
77519;DHT22;66629;47.346;19.038;2023-02-01T10:54:52;8.46;66.67
77519;DHT22;66629;47.346;19.038;2023-02-01T10:57:25;8.67;66.84
77519;DHT22;66629;47.346;19.038;2023-02-01T10:59:53;8.60;66.41
77519;DHT22;66629;47.346;19.038;2023-02-01T11:04:46;8.17;66.78
77519;DHT22;66629;47.346;19.038;2023-02-01T11:07:24;8.41;66.07
77519;DHT22;66629;47.346;19.038;2023-02-01T11:09:52;8.50;66.10
77519;DHT22;66629;47.346;19.038;2023-02-01T11:12:32;8.34;66.18
77519;DHT22;66629;47.346;19.038;2023-02-01T11:15:22;7.99;67.06
77519;DHT22;66629;47.346;19.038;2023-02-01T11:17:49;7.96;67.00
77519;DHT22;66629;47.346;19.038;2023-02-01T11:20:41;8.05;66.54
77519;DHT22;66629;47.346;19.038;2023-02-01T11:23:19;7.92;66.90
77519;DHT22;66629;47.346;19.038;2023-02-01T11:25:59;8.07;66.97
77519;DHT22;66629;47.346;19.038;2023-02-01T11:28:27;8.05;67.42
77519;DHT22;66629;47.346;19.038;2023-02-01T11:30:56;8.01;66.93
77519;DHT22;66629;47.346;19.038;2023-02-01T11:33:29;7.89;67.28
77519;DHT22;66629;47.346;19.038;2023-02-01T11:35:58;7.84;67.78
77519;DHT22;66629;47.346;19.038;2023-02-01T11:38:29;7.91;70.02
77519;DHT22;66629;47.346;19.038;2023-02-01T11:40:55;7.95;69.72
77519;DHT22;66629;47.346;19.038;2023-02-01T11:43:35;7.78;70.06
77519;DHT22;66629;47.346;19.038;2023-02-01T11:46:03;7.78;70.34
77519;DHT22;66629;47.346;19.038;2023-02-01T11:48:33;7.84;70.14
77519;DHT22;66629;47.346;19.038;2023-02-01T12:07:28;7.23;76.14
77519;DHT22;66629;47.346;19.038;2023-02-01T12:13:01;6.81;78.53
77519;DHT22;66629;47.346;19.038;2023-02-01T12:40:14;5.33;85.67
77519;DHT22;66629;47.346;19.038;2023-02-01T12:42:50;5.19;85.67
77519;DHT22;66629;47.346;19.038;2023-02-01T12:50:56;4.82;87.23
77519;DHT22;66629;47.346;19.038;2023-02-01T12:53:30;4.71;87.30
77519;DHT22;66629;47.346;19.038;2023-02-01T12:56:02;4.74;88.23
77519;DHT22;66629;47.346;19.038;2023-02-01T12:58:46;4.78;88.02
77519;DHT22;66629;47.346;19.038;2023-02-01T13:01:31;4.76;87.81
77519;DHT22;66629;47.346;19.038;2023-02-01T13:07:16;4.88;87.35
77519;DHT22;66629;47.346;19.038;2023-02-01T13:09:49;4.93;87.23
77519;DHT22;66629;47.346;19.038;2023-02-01T13:12:24;4.99;87.54
77519;DHT22;66629;47.346;19.038;2023-02-01T13:14:53;4.96;87.64
77519;DHT22;66629;47.346;19.038;2023-02-01T13:17:26;4.97;88.02
77519;DHT22;66629;47.346;19.038;2023-02-01T13:19:57;4.96;88.07
77519;DHT22;66629;47.346;19.038;2023-02-01T13:22:33;4.93;88.14
77519;DHT22;66629;47.346;19.038;2023-02-01T13:25:03;5.03;89.11
77519;DHT22;66629;47.346;19.038;2023-02-01T13:27:37;5.03;87.67
77519;DHT22;66629;47.346;19.038;2023-02-01T13:30:18;5.06;87.63
77519;DHT22;66629;47.346;19.038;2023-02-01T13:33:33;5.10;87.02
77519;DHT22;66629;47.346;19.038;2023-02-01T13:41:28;5.10;87.57
77519;DHT22;66629;47.346;19.038;2023-02-01T13:44:09;5.07;87.24
77519;DHT22;66629;47.346;19.038;2023-02-01T13:46:44;5.05;87.61
77519;DHT22;66629;47.346;19.038;2023-02-01T13:49:23;4.99;88.98
77519;DHT22;66629;47.346;19.038;2023-02-01T13:51:52;5.00;88.45
77519;DHT22;66629;47.346;19.038;2023-02-01T13:54:35;4.99;87.35
77519;DHT22;66629;47.346;19.038;2023-02-01T13:57:03;4.95;88.19
77519;DHT22;66629;47.346;19.038;2023-02-01T14:02:36;4.90;88.69
77519;DHT22;66629;47.346;19.038;2023-02-01T14:05:02;4.93;88.28
77519;DHT22;66629;47.346;19.038;2023-02-01T14:07:28;4.93;87.27
77519;DHT22;66629;47.346;19.038;2023-02-01T14:09:54;4.96;87.38
77519;DHT22;66629;47.346;19.038;2023-02-01T14:12:48;4.99;88.02
77519;DHT22;66629;47.346;19.038;2023-02-01T14:15:27;5.01;88.37
77519;DHT22;66629;47.346;19.038;2023-02-01T14:17:53;5.05;87.09
77519;DHT22;66629;47.346;19.038;2023-02-01T14:20:43;5.01;86.69
77519;DHT22;66629;47.346;19.038;2023-02-01T14:23:13;4.99;85.84
77519;DHT22;66629;47.346;19.038;2023-02-01T14:25:40;5.00;86.52
77519;DHT22;66629;47.346;19.038;2023-02-01T14:28:22;4.97;86.72
77519;DHT22;66629;47.346;19.038;2023-02-01T14:30:48;5.03;86.40
77519;DHT22;66629;47.346;19.038;2023-02-01T14:33:19;5.07;86.67
77519;DHT22;66629;47.346;19.038;2023-02-01T14:36:00;5.17;85.31
77519;DHT22;66629;47.346;19.038;2023-02-01T14:38:26;5.26;84.76
77519;DHT22;66629;47.346;19.038;2023-02-01T14:40:52;5.28;85.36
77519;DHT22;66629;47.346;19.038;2023-02-01T14:43:50;5.27;84.00
77519;DHT22;66629;47.346;19.038;2023-02-01T14:46:17;5.27;85.27
77519;DHT22;66629;47.346;19.038;2023-02-01T14:48:44;5.26;84.16
77519;DHT22;66629;47.346;19.038;2023-02-01T14:51:13;5.24;83.80
77519;DHT22;66629;47.346;19.038;2023-02-01T14:53:40;5.24;83.83
77519;DHT22;66629;47.346;19.038;2023-02-01T14:56:13;5.24;83.10
77519;DHT22;66629;47.346;19.038;2023-02-01T14:59:00;5.27;83.03
77519;DHT22;66629;47.346;19.038;2023-02-01T15:01:34;5.27;83.24
77519;DHT22;66629;47.346;19.038;2023-02-01T15:04:04;5.31;83.02
77519;DHT22;66629;47.346;19.038;2023-02-01T15:14:40;5.28;82.89
77519;DHT22;66629;47.346;19.038;2023-02-01T15:17:23;5.23;83.19
77519;DHT22;66629;47.346;19.038;2023-02-01T15:22:25;5.13;83.25
77519;DHT22;66629;47.346;19.038;2023-02-01T15:24:58;5.12;83.23
77519;DHT22;66629;47.346;19.038;2023-02-01T15:27:25;5.19;83.18
77519;DHT22;66629;47.346;19.038;2023-02-01T15:29:51;5.22;82.97
77519;DHT22;66629;47.346;19.038;2023-02-01T15:32:30;5.17;83.16
77519;DHT22;66629;47.346;19.038;2023-02-01T15:34:57;5.19;82.72
77519;DHT22;66629;47.346;19.038;2023-02-01T15:37:22;5.15;83.16
77519;DHT22;66629;47.346;19.038;2023-02-01T15:40:04;5.10;83.52
77519;DHT22;66629;47.346;19.038;2023-02-01T15:42:30;5.05;83.47
77519;DHT22;66629;47.346;19.038;2023-02-01T15:44:55;5.03;83.16
77519;DHT22;66629;47.346;19.038;2023-02-01T15:47:28;5.07;83.36
77519;DHT22;66629;47.346;19.038;2023-02-01T15:49:57;5.09;83.10
77519;DHT22;66629;47.346;19.038;2023-02-01T15:52:36;5.15;83.28
77519;DHT22;66629;47.346;19.038;2023-02-01T15:55:08;5.22;83.04
77519;DHT22;66629;47.346;19.038;2023-02-01T15:57:42;5.27;82.51
77519;DHT22;66629;47.346;19.038;2023-02-01T16:00:24;5.26;81.23
77519;DHT22;66629;47.346;19.038;2023-02-01T16:02:57;5.16;81.04
77519;DHT22;66629;47.346;19.038;2023-02-01T16:05:39;5.13;80.80
77519;DHT22;66629;47.346;19.038;2023-02-01T16:10:48;5.07;81.23
77519;DHT22;66629;47.346;19.038;2023-02-01T16:13:17;5.10;80.68
77519;DHT22;66629;47.346;19.038;2023-02-01T16:15:43;5.05;81.29
77519;DHT22;66629;47.346;19.038;2023-02-01T16:18:09;5.01;81.30
77519;DHT22;66629;47.346;19.038;2023-02-01T16:20:37;5.06;80.98
77519;DHT22;66629;47.346;19.038;2023-02-01T16:23:03;5.09;81.01
77519;DHT22;66629;47.346;19.038;2023-02-01T16:25:29;5.09;81.70
77519;DHT22;66629;47.346;19.038;2023-02-01T16:27:54;5.13;81.63
77519;DHT22;66629;47.346;19.038;2023-02-01T16:30:20;5.12;81.98
77519;DHT22;66629;47.346;19.038;2023-02-01T16:32:53;5.12;82.11
77519;DHT22;66629;47.346;19.038;2023-02-01T16:35:33;5.13;81.70
77519;DHT22;66629;47.346;19.038;2023-02-01T16:38:13;5.13;82.27
77519;DHT22;66629;47.346;19.038;2023-02-01T16:40:40;5.12;82.11
77519;DHT22;66629;47.346;19.038;2023-02-01T16:43:17;5.10;82.40
77519;DHT22;66629;47.346;19.038;2023-02-01T16:45:43;5.07;82.81
77519;DHT22;66629;47.346;19.038;2023-02-01T16:48:34;5.01;83.61
77519;DHT22;66629;47.346;19.038;2023-02-01T16:51:08;5.00;83.58
77519;DHT22;66629;47.346;19.038;2023-02-01T16:53:34;4.96;83.20
77519;DHT22;66629;47.346;19.038;2023-02-01T16:55:59;4.96;83.67
77519;DHT22;66629;47.346;19.038;2023-02-01T16:58:26;4.86;83.39
77519;DHT22;66629;47.346;19.038;2023-02-01T17:00:52;4.83;83.08
77519;DHT22;66629;47.346;19.038;2023-02-01T17:03:19;4.82;83.04
77519;DHT22;66629;47.346;19.038;2023-02-01T17:05:53;4.75;83.59
77519;DHT22;66629;47.346;19.038;2023-02-01T17:08:30;4.65;83.32
77519;DHT22;66629;47.346;19.038;2023-02-01T17:10:56;4.62;83.24
77519;DHT22;66629;47.346;19.038;2023-02-01T17:13:21;4.61;83.17
77519;DHT22;66629;47.346;19.038;2023-02-01T17:18:21;4.47;83.63
77519;DHT22;66629;47.346;19.038;2023-02-01T17:20:46;4.44;83.89
77519;DHT22;66629;47.346;19.038;2023-02-01T17:23:14;4.40;83.95
77519;DHT22;66629;47.346;19.038;2023-02-01T17:25:40;4.39;83.92
77519;DHT22;66629;47.346;19.038;2023-02-01T17:28:06;4.34;84.22
77519;DHT22;66629;47.346;19.038;2023-02-01T17:30:32;4.28;84.22
77519;DHT22;66629;47.346;19.038;2023-02-01T17:32:57;4.29;84.04
77519;DHT22;66629;47.346;19.038;2023-02-01T17:35:26;4.26;84.12
77519;DHT22;66629;47.346;19.038;2023-02-01T17:37:53;4.19;84.19
77519;DHT22;66629;47.346;19.038;2023-02-01T17:40:19;4.20;83.71
77519;DHT22;66629;47.346;19.038;2023-02-01T17:42:44;4.16;83.75
77519;DHT22;66629;47.346;19.038;2023-02-01T17:45:33;4.15;83.98
77519;DHT22;66629;47.346;19.038;2023-02-01T17:48:06;4.15;84.12
77519;DHT22;66629;47.346;19.038;2023-02-01T17:50:34;4.06;85.32
77519;DHT22;66629;47.346;19.038;2023-02-01T17:53:00;3.99;85.90
77519;DHT22;66629;47.346;19.038;2023-02-01T17:55:27;3.89;86.01
77519;DHT22;66629;47.346;19.038;2023-02-01T17:57:53;3.81;87.09
77519;DHT22;66629;47.346;19.038;2023-02-01T18:00:18;3.73;87.65
77519;DHT22;66629;47.346;19.038;2023-02-01T18:02:44;3.53;88.01